Aviation Digital Data Service (ADDS)

Output produced by METARs form (1749 UTC 21 October 2017)
found at http://www.aviationweather.gov/adds/metars/
 
METAR text: KDTL 211734Z AUTO 17008KT 10SM OVC017 17/15 A2951 RMK AO2
Conditions at: KDTL (DETROIT LAKES , MN, US) observed 1734 UTC 21 October 2017
Temperature: 17.0°C (63°F)
Dewpoint: 15.0°C (59°F) [RH = 88%]
Pressure (altimeter): 29.51 inches Hg (999.4 mb)
Winds: from the S (170 degrees) at 9 MPH (8 knots; 4.2 m/s)
Visibility: 10 or more miles (16+ km)
Ceiling: 1700 feet AGL
Clouds: overcast cloud deck at 1700 feet AGL
Weather: automated observation with no human augmentation;
there may or may not be significant weather present at this time